DWD Radarbild

   
[Quelle: ADDS]
METAR
EDLP 201620Z 29007KT 240V330 CAVOK 27/14 Q1018 =
TAF
EDLP 201100Z 2012/2112 24011KT 9999 SCT040 BECMG 2018/2021 24006KT BECMG 2106/2109 26011KT BKN012 PROB30 TEMPO 2107/2110 26015G25KT RA BECMG 2109/2112 29015G25KT SCT025 =
   
   

Meine WettercamWettercam aus Bielefeld Senne - Blickrichtung Süd-Ostjede Min. ein neues Bild

   
Moon phase
Phase:
Zunehmend

Mondphase:
53%

Alter:
8 Tage

Entfernung:
233,231 Km

Zeit:
18:40:26

Datum:
20-06-2018

   
<<  Jun 2018  >>
 Mo  Di  Mi  Do  Fr  Sa  So 
      1  2
  5  6  7  8  910
11121314151617
18192021222324
252627282930